createdAt,value
2023-04-18T00:01:23.476Z,49.83
2023-04-18T00:03:50.991Z,50.15
2023-04-18T00:06:17.886Z,50.59
2023-04-18T00:08:44.820Z,49.77
2023-04-18T00:11:11.347Z,49.62
2023-04-18T00:13:39.368Z,50.26
2023-04-18T00:16:07.714Z,51.27
2023-04-18T00:18:34.520Z,51.10
2023-04-18T00:21:01.995Z,52.81
2023-04-18T00:23:30.167Z,51.81
2023-04-18T00:25:56.748Z,51.97
2023-04-18T00:28:23.229Z,51.43
2023-04-18T00:30:49.804Z,51.49
2023-04-18T00:33:16.660Z,51.36
2023-04-18T00:35:43.213Z,51.72
2023-04-18T00:38:10.171Z,51.85
2023-04-18T00:40:37.737Z,52.13
2023-04-18T00:43:04.304Z,51.49
2023-04-18T00:45:31.018Z,51.83
2023-04-18T00:47:57.562Z,51.03
2023-04-18T00:50:24.434Z,50.33
2023-04-18T00:52:51.988Z,51.25
2023-04-18T00:55:18.936Z,51.72
2023-04-18T00:57:45.943Z,50.99
2023-04-18T01:00:13.050Z,51.14
2023-04-18T01:02:39.988Z,51.02
2023-04-18T01:05:07.920Z,51.30
2023-04-18T01:07:37.265Z,52.06
2023-04-18T01:10:04.341Z,51.38
2023-04-18T01:12:31.308Z,50.79
2023-04-18T01:14:58.780Z,50.52
2023-04-18T01:17:28.259Z,50.86
2023-04-18T01:19:54.870Z,51.06
2023-04-18T01:22:21.358Z,49.88
2023-04-18T01:24:47.835Z,50.79
2023-04-18T01:27:14.465Z,50.94
2023-04-18T01:29:41.031Z,50.56
2023-04-18T01:32:07.610Z,50.44
2023-04-18T01:34:34.174Z,50.64
2023-04-18T01:37:00.780Z,50.83
2023-04-18T01:39:27.993Z,51.18
2023-04-18T01:41:54.476Z,50.63
2023-04-18T01:44:20.943Z,50.98
2023-04-18T01:46:47.483Z,50.38
2023-04-18T01:49:14.043Z,49.97
2023-04-18T01:51:42.121Z,50.85
2023-04-18T01:54:08.666Z,50.49
2023-04-18T01:56:35.239Z,51.18
2023-04-18T01:59:01.838Z,50.92
2023-04-18T02:01:28.364Z,51.52
2023-04-18T02:03:55.010Z,51.38
2023-04-18T02:06:21.693Z,51.39
2023-04-18T02:08:48.170Z,50.98
2023-04-18T02:11:14.698Z,51.96
2023-04-18T02:13:41.250Z,52.14
2023-04-18T02:16:12.724Z,52.61
2023-04-18T02:18:39.394Z,52.73
2023-04-18T02:21:06.485Z,52.68
2023-04-18T02:23:32.952Z,51.73
2023-04-18T02:25:59.497Z,51.79
2023-04-18T02:28:25.962Z,51.80
2023-04-18T02:30:52.940Z,52.04
2023-04-18T02:33:19.607Z,52.88
2023-04-18T02:35:46.227Z,52.58
2023-04-18T02:38:13.771Z,53.11
2023-04-18T02:40:40.423Z,53.25
2023-04-18T02:43:06.886Z,53.16
2023-04-18T02:45:33.584Z,53.20
2023-04-18T02:48:00.264Z,53.69
2023-04-18T02:50:27.203Z,53.87
2023-04-18T02:52:53.714Z,54.24
2023-04-18T02:55:21.871Z,53.76
2023-04-18T02:57:48.383Z,53.96
2023-04-18T03:00:15.051Z,54.00
2023-04-18T03:02:41.900Z,54.27
2023-04-18T03:05:08.710Z,53.65
2023-04-18T03:07:35.381Z,54.50
2023-04-18T03:10:01.986Z,53.83
2023-04-18T03:12:28.519Z,54.05
2023-04-18T03:14:55.011Z,54.18
2023-04-18T03:17:21.517Z,53.61
2023-04-18T03:19:48.448Z,53.66
2023-04-18T03:22:15.693Z,54.57
2023-04-18T03:24:42.262Z,53.93
2023-04-18T03:27:08.772Z,54.50
2023-04-18T03:29:35.528Z,53.68
2023-04-18T03:32:02.042Z,53.70
2023-04-18T03:34:29.262Z,53.86
2023-04-18T03:36:56.007Z,53.96
2023-04-18T03:39:22.515Z,54.11
2023-04-18T03:41:49.785Z,54.53
2023-04-18T03:44:16.610Z,54.66
2023-04-18T03:46:43.510Z,54.29
2023-04-18T03:49:10.308Z,54.39
2023-04-18T03:51:43.508Z,54.22
2023-04-18T03:54:10.111Z,55.13
2023-04-18T03:56:36.714Z,54.79
2023-04-18T03:59:03.173Z,53.86
2023-04-18T04:01:29.797Z,54.04
2023-04-18T04:03:56.736Z,53.79
2023-04-18T04:06:23.389Z,53.74
2023-04-18T04:08:50.224Z,53.19
2023-04-18T04:11:17.595Z,53.33
2023-04-18T04:13:44.155Z,53.69
2023-04-18T04:16:10.685Z,53.67
2023-04-18T04:18:37.191Z,54.14
2023-04-18T04:21:03.920Z,54.56
2023-04-18T04:23:30.484Z,54.23
2023-04-18T04:25:58.617Z,53.71
2023-04-18T04:28:26.172Z,54.48
2023-04-18T04:30:53.141Z,53.80
2023-04-18T04:33:20.204Z,54.27
2023-04-18T04:35:47.510Z,54.69
2023-04-18T04:38:19.957Z,55.03
2023-04-18T04:40:46.432Z,54.40
2023-04-18T04:43:15.602Z,54.68
2023-04-18T04:45:43.527Z,53.83
2023-04-18T04:48:11.094Z,53.26
2023-04-18T04:50:38.733Z,54.27
2023-04-18T04:53:06.390Z,53.77
2023-04-18T04:55:33.524Z,54.27
2023-04-18T04:58:00.415Z,54.47
2023-04-18T05:00:27.108Z,54.48
2023-04-18T05:02:55.666Z,53.38
2023-04-18T05:05:22.273Z,52.91
2023-04-18T05:07:48.764Z,54.08
2023-04-18T05:10:15.466Z,54.41
2023-04-18T05:12:41.984Z,54.31
2023-04-18T05:15:08.769Z,54.81
2023-04-18T05:17:35.480Z,53.68
2023-04-18T05:20:02.116Z,53.49
2023-04-18T05:22:28.684Z,53.65
2023-04-18T05:24:55.261Z,52.86
2023-04-18T05:27:21.830Z,53.75
2023-04-18T05:29:50.185Z,54.68
2023-04-18T05:32:16.836Z,54.84
2023-04-18T05:34:43.362Z,55.35
2023-04-18T05:37:09.988Z,55.81
2023-04-18T05:39:36.610Z,55.68
2023-04-18T05:42:03.333Z,54.90
2023-04-18T05:44:30.159Z,55.17
2023-04-18T05:46:56.661Z,55.98
2023-04-18T05:49:23.671Z,54.62
2023-04-18T05:51:50.569Z,56.31
2023-04-18T05:54:17.210Z,56.07
2023-04-18T05:56:43.917Z,55.22
2023-04-18T05:59:10.786Z,55.33
2023-04-18T06:01:37.253Z,55.21
2023-04-18T06:04:04.003Z,54.53
2023-04-18T06:06:31.466Z,55.09
2023-04-18T06:08:58.010Z,54.71
2023-04-18T06:11:24.504Z,55.21
2023-04-18T06:13:51.206Z,56.46
2023-04-18T06:16:18.074Z,55.81
2023-04-18T06:18:44.619Z,54.97
2023-04-18T06:21:11.169Z,54.98
2023-04-18T06:23:38.504Z,55.37
2023-04-18T06:26:06.054Z,54.84
2023-04-18T06:28:32.741Z,55.66
2023-04-18T06:30:59.282Z,56.05
2023-04-18T06:33:26.020Z,56.69
2023-04-18T06:35:52.779Z,55.60
2023-04-18T06:38:19.281Z,54.51
2023-04-18T06:40:45.735Z,56.20
2023-04-18T06:43:12.177Z,56.74
2023-04-18T06:45:38.986Z,57.29
2023-04-18T06:48:06.110Z,55.25
2023-04-18T06:50:32.665Z,56.69
2023-04-18T06:52:59.134Z,56.44
2023-04-18T06:55:25.663Z,57.37
2023-04-18T06:57:52.295Z,57.29
2023-04-18T07:00:19.047Z,57.49
2023-04-18T07:02:45.627Z,56.63
2023-04-18T07:05:12.455Z,55.18
2023-04-18T07:07:39.098Z,54.60
2023-04-18T07:10:06.751Z,55.37
2023-04-18T07:12:33.822Z,56.02
2023-04-18T07:15:00.582Z,55.25
2023-04-18T07:17:27.118Z,54.97
2023-04-18T07:19:53.601Z,55.75
2023-04-18T07:22:20.203Z,56.52
2023-04-18T07:24:46.776Z,55.18
2023-04-18T07:27:13.596Z,54.39
2023-04-18T07:29:40.111Z,53.43
2023-04-18T07:32:08.387Z,53.49
2023-04-18T07:34:36.648Z,54.14
2023-04-18T07:37:03.335Z,54.58
2023-04-18T07:39:31.832Z,55.00
2023-04-18T07:41:58.819Z,53.82
2023-04-18T07:44:25.540Z,53.85
2023-04-18T07:46:52.372Z,54.67
2023-04-18T07:49:19.053Z,55.39
2023-04-18T07:51:45.553Z,54.19
2023-04-18T07:54:12.050Z,54.02
2023-04-18T07:56:38.821Z,54.70
2023-04-18T07:59:05.370Z,53.24
2023-04-18T08:01:31.930Z,51.99
2023-04-18T08:04:01.811Z,53.76
2023-04-18T08:06:29.054Z,53.61
2023-04-18T08:08:55.683Z,54.83
2023-04-18T08:11:23.291Z,55.11
2023-04-18T08:13:49.768Z,57.01
2023-04-18T08:16:17.488Z,56.73
2023-04-18T08:18:44.359Z,56.36
2023-04-18T08:21:10.974Z,56.70
2023-04-18T08:23:37.645Z,57.55
2023-04-18T08:26:04.266Z,56.80
2023-04-18T08:28:30.749Z,56.83
2023-04-18T08:30:57.476Z,57.24
2023-04-18T08:33:24.519Z,56.55
2023-04-18T08:35:51.498Z,56.43
2023-04-18T08:38:18.458Z,55.73
2023-04-18T08:40:45.356Z,55.30
2023-04-18T08:43:14.814Z,56.53
2023-04-18T08:45:45.162Z,56.57
2023-04-18T08:48:16.260Z,55.54
2023-04-18T08:50:43.302Z,54.17
2023-04-18T08:53:10.253Z,54.30
2023-04-18T08:55:37.376Z,55.88
2023-04-18T08:58:07.242Z,54.88
2023-04-18T09:00:34.117Z,55.37
2023-04-18T09:03:03.679Z,55.60
2023-04-18T09:05:30.570Z,56.24
2023-04-18T09:07:57.134Z,55.71
2023-04-18T09:10:31.042Z,55.64
2023-04-18T09:12:59.251Z,55.26
2023-04-18T09:15:27.278Z,55.05
2023-04-18T09:17:56.238Z,56.01
2023-04-18T09:20:34.609Z,56.11
2023-04-18T09:23:14.672Z,55.28
2023-04-18T09:25:44.139Z,55.96
2023-04-18T09:28:28.737Z,54.83
2023-04-18T09:31:14.497Z,55.34
2023-04-18T09:33:52.759Z,55.41
2023-04-18T09:36:22.975Z,54.90
2023-04-18T09:38:52.563Z,53.44
2023-04-18T09:41:22.465Z,53.01
2023-04-18T09:43:49.429Z,53.52
2023-04-18T09:46:17.563Z,53.77
2023-04-18T09:48:44.261Z,52.55
2023-04-18T09:51:14.721Z,52.38
2023-04-18T09:53:44.531Z,51.12
2023-04-18T09:56:27.645Z,51.84
2023-04-18T09:59:09.169Z,51.71
2023-04-18T10:01:36.128Z,51.32
2023-04-18T10:04:04.395Z,51.49
2023-04-18T10:06:33.303Z,50.79
2023-04-18T10:09:00.720Z,49.72
2023-04-18T10:11:27.430Z,50.64
2023-04-18T10:13:56.920Z,53.01
2023-04-18T10:16:24.039Z,52.42
2023-04-18T10:18:53.414Z,52.29
2023-04-18T10:21:21.309Z,52.31
2023-04-18T10:23:49.090Z,51.71
2023-04-18T10:26:16.041Z,50.94
2023-04-18T10:28:49.487Z,50.84
2023-04-18T10:31:16.853Z,48.75
2023-04-18T10:34:03.104Z,48.83
2023-04-18T10:36:30.301Z,48.41
2023-04-18T10:39:05.792Z,48.36
2023-04-18T10:41:33.647Z,46.91
2023-04-18T10:44:15.673Z,47.68
2023-04-18T10:47:08.795Z,47.89
2023-04-18T10:49:38.268Z,46.71
2023-04-18T10:52:08.480Z,45.66
2023-04-18T10:54:51.766Z,45.95
2023-04-18T10:57:18.333Z,45.68
2023-04-18T10:59:48.843Z,45.02
2023-04-18T11:02:32.269Z,44.24
2023-04-18T11:05:06.966Z,43.41
2023-04-18T11:07:34.008Z,45.56
2023-04-18T11:10:01.863Z,44.47
2023-04-18T11:12:34.838Z,43.76
2023-04-18T11:15:08.092Z,45.23
2023-04-18T11:17:35.811Z,45.69
2023-04-18T11:20:11.277Z,44.40
2023-04-18T11:22:55.381Z,44.11
2023-04-18T11:25:40.528Z,43.79
2023-04-18T11:28:07.427Z,43.31
2023-04-18T11:30:41.398Z,43.22
2023-04-18T11:33:12.013Z,45.05
2023-04-18T11:35:43.593Z,45.86
2023-04-18T11:38:13.272Z,44.78
2023-04-18T11:40:47.418Z,46.10
2023-04-18T11:43:20.789Z,45.00
2023-04-18T11:45:59.961Z,44.36
2023-04-18T11:48:43.438Z,45.23
2023-04-18T11:51:36.140Z,44.85
2023-04-18T11:54:02.731Z,46.54
2023-04-18T11:56:29.488Z,46.48
2023-04-18T11:58:56.278Z,44.99
2023-04-18T12:01:24.720Z,47.00
2023-04-18T12:04:08.096Z,46.15
2023-04-18T12:06:51.926Z,46.33
2023-04-18T12:09:19.327Z,46.32
2023-04-18T12:12:03.159Z,46.83
2023-04-18T12:14:30.352Z,46.48
2023-04-18T12:16:56.843Z,46.59
2023-04-18T12:19:28.052Z,46.61
2023-04-18T12:22:03.051Z,44.75
2023-04-18T12:24:29.940Z,43.52
2023-04-18T12:26:58.089Z,43.55
2023-04-18T12:29:25.705Z,42.65
2023-04-18T12:31:52.405Z,41.65
2023-04-18T12:34:19.035Z,40.79
2023-04-18T12:36:46.681Z,40.77
2023-04-18T12:39:13.315Z,40.11
2023-04-18T12:41:39.828Z,40.13
2023-04-18T12:44:06.730Z,40.83
2023-04-18T12:46:33.392Z,41.46
2023-04-18T12:49:00.302Z,41.94
2023-04-18T12:51:28.226Z,41.77
2023-04-18T12:53:54.935Z,41.56
2023-04-18T12:56:21.500Z,41.50
2023-04-18T12:58:48.081Z,40.87
2023-04-18T13:01:15.186Z,41.34
2023-04-18T13:03:42.091Z,41.27
2023-04-18T13:06:08.934Z,41.03
2023-04-18T13:08:35.398Z,40.64
2023-04-18T13:11:02.065Z,40.41
2023-04-18T13:13:28.752Z,39.46
2023-04-18T13:15:55.470Z,39.72
2023-04-18T13:18:22.000Z,39.92
2023-04-18T13:20:49.650Z,39.07
2023-04-18T13:23:17.640Z,38.93
2023-04-18T13:25:44.157Z,39.63
2023-04-18T13:28:10.685Z,40.88
2023-04-18T13:30:37.402Z,41.15
2023-04-18T13:33:04.205Z,41.12
2023-04-18T13:35:30.711Z,40.66
2023-04-18T13:37:57.189Z,39.94
2023-04-18T13:40:24.141Z,39.25
2023-04-18T13:42:51.443Z,40.27
2023-04-18T13:45:18.661Z,41.04
2023-04-18T13:47:45.294Z,39.25
2023-04-18T13:50:12.067Z,40.50
2023-04-18T13:52:38.552Z,40.34
2023-04-18T13:55:05.555Z,40.66
2023-04-18T13:57:33.218Z,40.60
2023-04-18T13:59:59.736Z,39.78
2023-04-18T14:02:26.736Z,38.24
2023-04-18T14:04:54.782Z,39.09
2023-04-18T14:07:21.447Z,38.91
2023-04-18T14:09:48.176Z,38.57
2023-04-18T14:12:14.725Z,38.56
2023-04-18T14:14:42.018Z,39.04
2023-04-18T14:17:08.576Z,39.19
2023-04-18T14:19:35.526Z,39.12
2023-04-18T14:22:02.025Z,39.86
2023-04-18T14:24:28.480Z,40.44
2023-04-18T14:26:54.940Z,41.95
2023-04-18T14:29:21.421Z,40.91
2023-04-18T14:31:48.032Z,41.22
2023-04-18T14:34:14.624Z,41.89
2023-04-18T14:36:41.380Z,41.56
2023-04-18T14:39:08.271Z,41.54
2023-04-18T14:41:34.847Z,40.86
2023-04-18T14:44:01.511Z,40.17
2023-04-18T14:46:28.394Z,39.44
2023-04-18T14:48:55.049Z,39.35
2023-04-18T14:51:21.597Z,39.47
2023-04-18T14:53:48.299Z,40.57
2023-04-18T14:56:16.210Z,41.57
2023-04-18T14:58:43.797Z,42.05
2023-04-18T15:01:10.406Z,41.51
2023-04-18T15:03:37.030Z,41.41
2023-04-18T15:06:03.846Z,40.57
2023-04-18T15:08:32.841Z,41.10
2023-04-18T15:10:59.501Z,40.20
2023-04-18T15:13:25.985Z,40.52
2023-04-18T15:15:53.595Z,40.40
2023-04-18T15:18:20.595Z,41.13
2023-04-18T15:20:47.615Z,40.89
2023-04-18T15:23:14.716Z,40.76
2023-04-18T15:25:42.145Z,40.85
2023-04-18T15:28:08.967Z,41.32
2023-04-18T15:30:35.643Z,41.30
2023-04-18T15:33:02.467Z,42.17
2023-04-18T15:35:29.110Z,42.24
2023-04-18T15:37:57.326Z,42.95
2023-04-18T15:40:23.854Z,43.16
2023-04-18T15:42:51.017Z,43.55
2023-04-18T15:45:17.927Z,43.53
2023-04-18T15:47:44.453Z,42.92
2023-04-18T15:50:11.186Z,42.89
2023-04-18T15:52:38.167Z,43.09
2023-04-18T15:55:05.332Z,42.87
2023-04-18T15:57:31.964Z,43.08
2023-04-18T15:59:59.661Z,42.96
2023-04-18T16:02:26.626Z,42.52
2023-04-18T16:04:53.526Z,42.59
2023-04-18T16:07:20.127Z,41.99
2023-04-18T16:09:46.668Z,42.74
2023-04-18T16:12:13.338Z,42.18
2023-04-18T16:14:39.876Z,43.46
2023-04-18T16:17:06.568Z,43.46
2023-04-18T16:19:35.049Z,43.80
2023-04-18T16:22:03.068Z,43.57
2023-04-18T16:24:30.273Z,43.92
2023-04-18T16:26:56.943Z,44.60
2023-04-18T16:29:23.828Z,45.18
2023-04-18T16:31:51.721Z,45.45
2023-04-18T16:34:18.474Z,45.42
2023-04-18T16:36:44.973Z,45.47
2023-04-18T16:39:12.130Z,45.09
2023-04-18T16:41:38.857Z,45.40
2023-04-18T16:44:05.381Z,46.28
2023-04-18T16:46:32.358Z,46.61
2023-04-18T16:48:59.260Z,46.24
2023-04-18T16:51:26.867Z,46.67
2023-04-18T16:53:53.369Z,46.28
2023-04-18T16:56:19.858Z,46.08
2023-04-18T16:58:46.757Z,46.03
2023-04-18T17:01:13.387Z,46.15
2023-04-18T17:03:40.003Z,46.48
2023-04-18T17:06:06.901Z,47.03
2023-04-18T17:08:34.147Z,46.93
2023-04-18T17:11:02.184Z,46.90
2023-04-18T17:13:31.353Z,47.41
2023-04-18T17:15:58.010Z,47.52
2023-04-18T17:18:24.749Z,47.85
2023-04-18T17:20:52.583Z,48.10
2023-04-18T17:23:19.375Z,47.42
2023-04-18T17:25:46.238Z,47.74
2023-04-18T17:28:13.836Z,47.25
2023-04-18T17:30:44.169Z,47.18
2023-04-18T17:33:10.975Z,47.74
2023-04-18T17:35:41.410Z,47.18
2023-04-18T17:38:08.939Z,47.38
2023-04-18T17:40:35.420Z,47.95
2023-04-18T17:43:01.869Z,47.92
2023-04-18T17:45:28.446Z,47.65
2023-04-18T17:47:57.097Z,47.76
2023-04-18T17:50:23.617Z,47.75
2023-04-18T17:52:50.360Z,47.29
2023-04-18T17:55:16.847Z,47.67
2023-04-18T17:57:43.332Z,48.37
2023-04-18T18:00:11.830Z,48.38
2023-04-18T18:02:38.579Z,48.52
2023-04-18T18:05:05.590Z,48.37
2023-04-18T18:07:34.813Z,48.36
2023-04-18T18:10:01.864Z,48.71
2023-04-18T18:12:28.323Z,48.96
2023-04-18T18:14:57.055Z,49.42
2023-04-18T18:17:23.760Z,49.37
2023-04-18T18:19:50.529Z,49.03
2023-04-18T18:22:17.749Z,49.47
2023-04-18T18:24:44.266Z,49.09
2023-04-18T18:27:10.858Z,49.61
2023-04-18T18:29:37.392Z,49.26
2023-04-18T18:32:03.968Z,49.42
2023-04-18T18:34:31.988Z,49.39
2023-04-18T18:36:58.667Z,49.60
2023-04-18T18:39:25.144Z,49.02
2023-04-18T18:41:52.357Z,48.92
2023-04-18T18:44:18.805Z,48.98
2023-04-18T18:46:45.434Z,49.49
2023-04-18T18:49:12.337Z,49.17
2023-04-18T18:51:39.018Z,49.70
2023-04-18T18:54:05.538Z,49.51
2023-04-18T18:56:32.161Z,49.63
2023-04-18T18:58:58.910Z,50.47
2023-04-18T19:01:25.573Z,50.73
2023-04-18T19:03:52.789Z,50.17
2023-04-18T19:06:19.426Z,50.78
2023-04-18T19:08:46.196Z,50.49
2023-04-18T19:11:12.888Z,50.63
2023-04-18T19:13:39.628Z,50.90
2023-04-18T19:16:06.280Z,51.20
2023-04-18T19:18:33.104Z,51.34
2023-04-18T19:20:59.568Z,51.44
2023-04-18T19:23:27.733Z,51.46
2023-04-18T19:25:54.696Z,52.26
2023-04-18T19:28:22.836Z,50.88
2023-04-18T19:30:49.560Z,51.30
2023-04-18T19:33:17.200Z,51.66
2023-04-18T19:35:43.759Z,51.18
2023-04-18T19:38:10.296Z,52.46
2023-04-18T19:40:37.159Z,52.31
2023-04-18T19:43:03.633Z,52.23
2023-04-18T19:45:30.660Z,52.38
2023-04-18T19:47:57.288Z,52.20
2023-04-18T19:50:23.898Z,52.12
2023-04-18T19:52:50.686Z,51.46
2023-04-18T19:55:17.316Z,53.00
2023-04-18T19:57:43.923Z,52.94
2023-04-18T20:00:12.700Z,51.99
2023-04-18T20:02:40.320Z,52.09
2023-04-18T20:05:08.492Z,51.92
2023-04-18T20:07:35.913Z,51.79
2023-04-18T20:10:02.427Z,51.90
2023-04-18T20:12:29.009Z,51.89
2023-04-18T20:14:55.879Z,52.29
2023-04-18T20:17:22.564Z,52.17
2023-04-18T20:19:49.666Z,52.03
2023-04-18T20:22:16.796Z,52.08
2023-04-18T20:24:44.998Z,52.09
2023-04-18T20:27:11.826Z,53.32
2023-04-18T20:29:38.373Z,52.66
2023-04-18T20:32:05.739Z,51.88
2023-04-18T20:34:32.568Z,52.38
2023-04-18T20:36:59.955Z,52.33
2023-04-18T20:39:27.009Z,51.68
2023-04-18T20:41:54.309Z,52.12
2023-04-18T20:44:21.816Z,52.03
2023-04-18T20:46:48.412Z,52.24
2023-04-18T20:49:15.000Z,52.05
2023-04-18T20:51:41.585Z,51.70
2023-04-18T20:54:08.227Z,52.07
2023-04-18T20:56:36.496Z,51.24
2023-04-18T20:59:04.698Z,51.09
2023-04-18T21:01:31.447Z,50.84
2023-04-18T21:03:58.319Z,52.03
2023-04-18T21:06:24.896Z,51.94
2023-04-18T21:08:51.409Z,51.89
2023-04-18T21:11:18.149Z,52.02
2023-04-18T21:13:44.689Z,52.17
2023-04-18T21:16:11.275Z,52.49
2023-04-18T21:18:37.800Z,52.58
2023-04-18T21:21:04.444Z,52.48
2023-04-18T21:23:31.017Z,52.50
2023-04-18T21:25:57.574Z,52.09
2023-04-18T21:28:24.260Z,52.89
2023-04-18T21:30:50.867Z,53.61
2023-04-18T21:33:19.206Z,53.64
2023-04-18T21:35:45.702Z,52.96
2023-04-18T21:38:12.205Z,53.44
2023-04-18T21:40:38.769Z,53.59
2023-04-18T21:43:05.347Z,52.91
2023-04-18T21:45:32.242Z,53.03
2023-04-18T21:47:58.954Z,53.36
2023-04-18T21:50:25.586Z,53.15
2023-04-18T21:52:52.407Z,53.28
2023-04-18T21:55:18.926Z,53.65
2023-04-18T21:57:45.446Z,54.11
2023-04-18T22:00:12.815Z,54.37
2023-04-18T22:02:39.607Z,55.11
2023-04-18T22:05:07.588Z,54.77
2023-04-18T22:07:43.239Z,54.31
2023-04-18T22:10:13.386Z,54.67
2023-04-18T22:12:40.207Z,54.33
2023-04-18T22:15:07.186Z,54.57
2023-04-18T22:17:34.951Z,54.51
2023-04-18T22:20:01.438Z,54.59
2023-04-18T22:22:27.908Z,54.45
2023-04-18T22:24:54.579Z,55.15
2023-04-18T22:27:21.102Z,54.76
2023-04-18T22:29:47.581Z,55.12
2023-04-18T22:32:14.215Z,55.19
2023-04-18T22:34:40.810Z,55.58
2023-04-18T22:37:07.558Z,55.81
2023-04-18T22:39:34.067Z,55.24
2023-04-18T22:42:00.969Z,54.67
2023-04-18T22:44:27.448Z,54.85
2023-04-18T22:46:56.745Z,55.26
2023-04-18T22:49:23.328Z,55.98
2023-04-18T22:51:54.167Z,55.27
2023-04-18T22:54:20.980Z,56.08
2023-04-18T22:56:49.251Z,56.66
2023-04-18T22:59:15.803Z,57.39
2023-04-18T23:01:42.492Z,56.94
2023-04-18T23:04:09.131Z,57.25
2023-04-18T23:06:36.759Z,56.22
2023-04-18T23:09:06.365Z,56.74
2023-04-18T23:11:32.865Z,57.13
2023-04-18T23:13:59.391Z,56.36
2023-04-18T23:16:25.957Z,55.98
2023-04-18T23:18:52.651Z,55.26
2023-04-18T23:21:19.187Z,55.73
2023-04-18T23:23:45.717Z,55.92
2023-04-18T23:26:16.168Z,55.34
2023-04-18T23:28:42.728Z,55.52
2023-04-18T23:31:09.848Z,56.10
2023-04-18T23:33:36.519Z,55.78
2023-04-18T23:36:03.469Z,55.54
2023-04-18T23:38:30.759Z,55.49
2023-04-18T23:40:57.251Z,56.17
2023-04-18T23:43:23.935Z,55.64
2023-04-18T23:45:50.617Z,55.36
2023-04-18T23:48:17.097Z,55.59
2023-04-18T23:50:52.202Z,56.15
2023-04-18T23:53:19.529Z,55.51
2023-04-18T23:55:47.564Z,55.16
2023-04-18T23:58:14.935Z,53.69
